Time;durP1;ratioP1;P1;durP2;ratioP2;P2;SDS_P1;SDS_P2;PMS_P1;PMS_P2;Temp;Humidity;BMP_temperature;BMP_pressure;BME280_temperature;BME280_humidity;BME280_pressure;Samples;Min_cycle;Max_cycle;Signal;HPM_P1;HPM_P2
2022/04/04 00:01:10;;;;;;;16.02;10.18;;;;;;;1.00;84.18;101889.81;5084437;28;20119;-63
2022/04/04 00:03:35;;;;;;;18.65;9.48;;;;;;;0.99;83.93;101885.41;5084744;28;20028;-62
2022/04/04 00:06:00;;;;;;;17.17;10.35;;;;;;;0.97;84.12;101892.81;5083531;28;20108;-62
2022/04/04 00:08:25;;;;;;;17.20;10.55;;;;;;;0.95;84.25;101886.69;5071465;28;20035;-61
2022/04/04 00:10:51;;;;;;;14.98;9.95;;;;;;;0.94;83.89;101879.56;5077769;28;20744;-62
2022/04/04 00:13:16;;;;;;;17.90;10.57;;;;;;;0.92;84.18;101876.16;5075203;28;20032;-62
2022/04/04 00:15:41;;;;;;;18.95;10.45;;;;;;;0.89;84.27;101872.88;5084071;28;20053;-62
2022/04/04 00:18:11;;;;;;;14.65;9.70;;;;;;;0.88;84.58;101872.03;5084274;28;20553;-62
2022/04/04 00:20:39;;;;;;;20.63;10.52;;;;;;;0.86;84.15;101871.31;5076363;28;20031;-61
2022/04/04 00:23:05;;;;;;;17.13;9.97;;;;;;;0.85;84.29;101864.19;5062353;28;20040;-62
2022/04/04 00:25:31;;;;;;;18.70;11.02;;;;;;;0.84;84.42;101854.38;5064354;28;20035;-62
2022/04/04 00:27:56;;;;;;;16.38;10.70;;;;;;;0.82;84.34;101850.97;5068380;28;20024;-62
2022/04/04 00:30:22;;;;;;;17.88;10.90;;;;;;;0.82;84.29;101850.97;5083563;28;20111;-62
2022/04/04 00:32:47;;;;;;;19.33;12.07;;;;;;;0.82;84.46;101852.84;5077051;28;20089;-63
2022/04/04 00:35:12;;;;;;;20.65;12.70;;;;;;;0.83;84.30;101839.16;5081027;28;20024;-61
2022/04/04 00:37:38;;;;;;;20.25;11.85;;;;;;;0.81;84.36;101838.44;5081797;28;20036;-61
2022/04/04 00:40:05;;;;;;;22.20;13.10;;;;;;;0.81;84.55;101837.59;5083432;28;20039;-61
2022/04/04 00:42:31;;;;;;;22.13;12.77;;;;;;;0.79;84.30;101835.03;5069312;28;20029;-62
2022/04/04 00:44:56;;;;;;;23.40;14.15;;;;;;;0.78;84.42;101830.63;5074141;28;20397;-62
2022/04/04 00:47:22;;;;;;;20.85;14.60;;;;;;;0.76;84.24;101829.91;5081766;28;20031;-61
2022/04/04 00:49:48;;;;;;;22.40;14.65;;;;;;;0.76;84.27;101825.38;5074012;28;20054;-62
2022/04/04 00:52:13;;;;;;;25.08;16.10;;;;;;;0.76;84.35;101816.38;5077695;28;20035;-62
2022/04/04 00:54:38;;;;;;;23.35;15.63;;;;;;;0.76;84.31;101822.66;5082855;28;20028;-62
2022/04/04 00:57:04;;;;;;;23.60;16.63;;;;;;;0.78;84.36;101812.53;5082354;28;20177;-61
2022/04/04 00:59:31;;;;;;;23.20;17.70;;;;;;;0.72;84.47;101813.13;5079898;28;20081;-61
2022/04/04 01:01:56;;;;;;;25.98;18.05;;;;;;;0.75;84.38;101809.25;5082741;28;20036;-61
2022/04/04 01:04:21;;;;;;;27.30;16.52;;;;;;;0.75;84.33;101798.44;5082123;28;20042;-61
2022/04/04 01:06:47;;;;;;;25.58;16.52;;;;;;;0.78;84.27;101804.44;5078437;28;20475;-61
2022/04/04 01:09:15;;;;;;;27.02;17.05;;;;;;;0.79;83.91;101797.16;5062961;28;20016;-61
2022/04/04 01:12:07;;;;;;;24.33;17.48;;;;;;;0.77;84.42;101789.22;5063222;28;20052;-62
2022/04/04 01:14:37;;;;;;;25.45;18.30;;;;;;;0.76;84.14;101792.03;5066669;28;20024;-61
2022/04/04 01:17:03;;;;;;;26.88;19.15;;;;;;;0.71;84.28;101784.38;5077523;28;20036;-61
2022/04/04 01:19:29;;;;;;;26.65;17.70;;;;;;;0.70;84.45;101785.34;5076168;28;20425;-61
2022/04/04 01:21:54;;;;;;;29.83;18.63;;;;;;;0.71;84.46;101778.97;5078973;28;20024;-61
2022/04/04 01:24:21;;;;;;;27.70;18.10;;;;;;;0.71;84.32;101781.69;5068270;28;20028;-61
2022/04/04 01:26:50;;;;;;;27.58;17.63;;;;;;;0.71;84.25;101767.28;5080524;28;20104;-62
2022/04/04 01:29:16;;;;;;;29.00;19.02;;;;;;;0.67;84.08;101755.06;5063015;28;20033;-62
2022/04/04 01:31:41;;;;;;;25.48;17.70;;;;;;;0.68;83.69;101751.38;5082105;28;20027;-62
2022/04/04 01:34:07;;;;;;;27.95;17.05;;;;;;;0.65;83.67;101751.66;5075909;28;20020;-62
2022/04/04 01:36:32;;;;;;;26.33;17.38;;;;;;;0.71;83.42;101751.06;5066716;28;20108;-61
2022/04/04 01:38:58;;;;;;;28.10;18.00;;;;;;;0.65;83.69;101747.09;5070026;28;20101;-62
2022/04/04 01:41:23;;;;;;;27.50;16.17;;;;;;;0.65;83.57;101735.44;5068398;28;20073;-61
2022/04/04 01:43:48;;;;;;;23.55;16.85;;;;;;;0.64;83.47;101722.91;5066000;28;20467;-61
2022/04/04 01:46:27;;;;;;;27.20;17.63;;;;;;;0.67;83.03;101725.34;5071879;28;20032;-62
2022/04/04 01:48:58;;;;;;;29.30;17.10;;;;;;;0.65;83.42;101720.06;5070263;28;20016;-62
2022/04/04 01:51:24;;;;;;;27.20;17.38;;;;;;;0.65;82.93;101708.38;5080590;28;20024;-61
2022/04/04 01:53:50;;;;;;;28.02;17.05;;;;;;;0.62;83.04;101698.75;5077678;28;20035;-62
2022/04/04 01:56:16;;;;;;;26.27;17.52;;;;;;;0.65;82.78;101706.53;5080645;28;20028;-61
2022/04/04 01:58:42;;;;;;;27.15;18.15;;;;;;;0.64;82.74;101693.19;5081101;28;20042;-61
2022/04/04 02:01:12;;;;;;;24.50;16.48;;;;;;;0.68;82.63;101700.84;5077070;28;20032;-61
2022/04/04 02:03:38;;;;;;;25.10;17.33;;;;;;;0.69;82.17;101697.16;5068113;28;20075;-62
2022/04/04 02:06:04;;;;;;;26.35;16.63;;;;;;;0.72;82.14;101686.06;5072712;28;20132;-61
2022/04/04 02:08:31;;;;;;;26.88;18.08;;;;;;;0.68;82.13;101681.09;5073467;28;20545;-61
2022/04/04 02:10:57;;;;;;;27.38;16.60;;;;;;;0.72;82.12;101675.25;5080748;28;20038;-61
2022/04/04 02:13:25;;;;;;;22.33;14.43;;;;;;;0.76;81.72;101673.06;5075178;28;20110;-62
2022/04/04 02:15:53;;;;;;;26.63;16.13;;;;;;;0.75;81.58;101674.06;5078801;28;20032;-61
2022/04/04 02:18:19;;;;;;;24.80;16.95;;;;;;;0.75;81.72;101665.97;5075844;28;20124;-61
2022/04/04 02:20:45;;;;;;;30.63;18.02;;;;;;;0.76;81.83;101667.66;5079956;28;20055;-61
2022/04/04 02:23:11;;;;;;;25.70;16.90;;;;;;;0.75;82.15;101660.56;5082141;28;20127;-62
2022/04/04 02:25:37;;;;;;;24.98;16.65;;;;;;;0.76;81.70;101656.84;5085560;28;20062;-61
2022/04/04 02:28:03;;;;;;;29.83;17.45;;;;;;;0.86;81.40;101646.84;5085296;28;20024;-61
2022/04/04 02:30:28;;;;;;;29.27;15.55;;;;;;;0.88;81.12;101647.56;5067041;28;20024;-61
2022/04/04 02:32:54;;;;;;;29.23;15.60;;;;;;;0.89;81.22;101635.75;5079497;28;20031;-61
2022/04/04 02:35:19;;;;;;;26.52;15.93;;;;;;;0.90;81.37;101634.75;5067763;28;20035;-61
2022/04/04 02:37:45;;;;;;;25.80;14.23;;;;;;;0.93;81.23;101637.16;5083906;28;20056;-61
2022/04/04 02:40:10;;;;;;;25.98;16.80;;;;;;;0.97;81.12;101633.16;5083382;28;20057;-67
2022/04/04 02:42:35;;;;;;;25.05;16.67;;;;;;;1.01;80.69;101625.59;5081776;28;20056;-61
2022/04/04 02:45:01;;;;;;;25.50;16.95;;;;;;;1.01;80.85;101622.88;5077808;28;20055;-61
2022/04/04 02:47:26;;;;;;;24.45;13.80;;;;;;;1.07;80.99;101616.91;5085772;28;20035;-61
2022/04/04 02:49:51;;;;;;;27.40;16.10;;;;;;;1.12;80.26;101603.78;5084738;28;20027;-61
2022/04/04 02:52:17;;;;;;;26.05;15.70;;;;;;;1.10;80.85;101599.50;5067722;28;20044;-61
2022/04/04 02:54:42;;;;;;;25.27;16.50;;;;;;;1.16;80.48;101598.88;5065845;28;20429;-61
2022/04/04 02:57:08;;;;;;;26.45;15.85;;;;;;;1.18;80.34;101594.19;5067032;28;20029;-61
2022/04/04 02:59:33;;;;;;;28.08;15.23;;;;;;;1.23;80.47;101591.88;5065042;28;20112;-61
2022/04/04 03:01:58;;;;;;;24.42;15.60;;;;;;;1.21;80.39;101583.91;5078299;28;20035;-64
2022/04/04 03:04:24;;;;;;;22.27;14.43;;;;;;;1.27;80.21;101579.75;5081725;28;20067;-61
2022/04/04 03:06:49;;;;;;;22.55;14.40;;;;;;;1.25;80.59;101574.47;5071404;28;20502;-63
2022/04/04 03:09:14;;;;;;;25.92;16.02;;;;;;;1.28;80.49;101567.94;5071309;28;20016;-62
2022/04/04 03:11:40;;;;;;;23.40;14.63;;;;;;;1.29;80.61;101561.50;5082212;28;20024;-61
2022/04/04 03:14:05;;;;;;;25.13;15.00;;;;;;;1.32;80.51;101558.50;5084399;28;20036;-61
2022/04/04 03:16:31;;;;;;;20.92;16.00;;;;;;;1.36;80.23;101556.31;5084118;28;20807;-61
2022/04/04 03:18:57;;;;;;;23.73;15.25;;;;;;;1.36;80.53;101551.75;5081800;28;20028;-61
2022/04/04 03:21:23;;;;;;;23.35;14.60;;;;;;;1.39;80.29;101531.69;5082761;28;20054;-62
2022/04/04 03:23:48;;;;;;;23.77;15.98;;;;;;;1.37;80.60;101539.97;5071224;28;20122;-61
2022/04/04 03:26:13;;;;;;;22.17;14.43;;;;;;;1.40;80.57;101531.50;5065374;28;20739;-61
2022/04/04 03:28:40;;;;;;;25.27;15.40;;;;;;;1.43;80.49;101530.38;5082290;28;20444;-61
2022/04/04 03:31:05;;;;;;;25.30;15.27;;;;;;;1.44;80.89;101527.50;5083907;28;20421;-61
2022/04/04 03:33:32;;;;;;;22.45;13.88;;;;;;;1.52;80.22;101518.59;5082722;28;20361;-61
2022/04/04 03:35:58;;;;;;;25.42;14.30;;;;;;;1.52;80.66;101519.47;5079739;28;20063;-62
2022/04/04 03:38:24;;;;;;;27.88;14.77;;;;;;;1.51;80.88;101509.63;5070698;28;20046;-62
2022/04/04 03:40:49;;;;;;;27.30;15.02;;;;;;;1.55;80.59;101507.47;5074411;28;20460;-61
2022/04/04 03:43:15;;;;;;;24.98;14.80;;;;;;;1.54;80.61;101506.63;5081931;28;20095;-61
2022/04/04 03:45:40;;;;;;;29.02;15.90;;;;;;;1.63;80.29;101495.88;5084689;28;20070;-61
2022/04/04 03:48:06;;;;;;;21.38;13.90;;;;;;;1.60;80.80;101496.16;5073175;28;20056;-61
2022/04/04 03:50:31;;;;;;;23.95;14.90;;;;;;;1.61;80.41;101487.03;5074569;28;20028;-61
2022/04/04 03:52:57;;;;;;;22.55;14.63;;;;;;;1.60;80.70;101490.75;5076361;28;20444;-63
2022/04/04 03:55:28;;;;;;;20.38;14.05;;;;;;;1.63;81.12;101482.31;5064872;28;20021;-61
2022/04/04 03:57:55;;;;;;;24.20;14.75;;;;;;;1.63;80.79;101471.50;5079411;28;20036;-61
2022/04/04 04:00:22;;;;;;;22.13;13.35;;;;;;;1.68;80.49;101470.00;5077666;28;20417;-61
2022/04/04 04:02:47;;;;;;;24.10;14.93;;;;;;;1.70;80.66;101483.38;5077533;28;20024;-62
2022/04/04 04:05:13;;;;;;;22.77;14.30;;;;;;;1.78;80.43;101472.63;5070931;28;20024;-62
2022/04/04 04:07:39;;;;;;;20.40;12.50;;;;;;;1.80;80.15;101457.06;5076351;28;20028;-61
2022/04/04 04:10:05;;;;;;;24.25;15.45;;;;;;;1.74;80.58;101453.13;5082705;28;20111;-61
2022/04/04 04:12:31;;;;;;;29.23;14.90;;;;;;;1.82;80.65;101449.63;5072854;28;20155;-62
2022/04/04 04:14:57;;;;;;;23.63;14.85;;;;;;;1.83;80.73;101440.50;5084024;28;20111;-62
2022/04/04 04:17:24;;;;;;;24.35;14.13;;;;;;;1.83;80.94;101445.94;5082390;28;20029;-62
2022/04/04 04:22:34;;;;;;;23.83;14.70;;;;;;;1.90;80.60;101428.00;5075418;28;20132;-62
2022/04/04 04:25:02;;;;;;;25.85;14.32;;;;;;;1.90;80.61;101427.16;5071173;28;20625;-63
2022/04/04 04:27:28;;;;;;;24.05;13.75;;;;;;;1.93;80.50;101422.28;5063295;28;20028;-61
2022/04/04 04:29:53;;;;;;;27.77;15.52;;;;;;;2.06;80.03;101414.56;5063847;28;20036;-63
2022/04/04 04:32:19;;;;;;;23.77;14.80;;;;;;;2.05;80.08;101415.56;5062642;28;20036;-62
2022/04/04 04:34:49;;;;;;;24.73;14.23;;;;;;;2.15;79.96;101403.78;5063050;28;20062;-62
2022/04/04 04:37:15;;;;;;;26.65;15.95;;;;;;;2.12;79.93;101401.38;5061531;28;20129;-62
2022/04/04 04:39:41;;;;;;;22.65;14.93;;;;;;;2.11;80.23;101394.25;5063186;28;20021;-63
2022/04/04 04:42:07;;;;;;;28.58;17.08;;;;;;;2.16;79.95;101389.19;5062353;28;20032;-62
2022/04/04 04:44:32;;;;;;;30.40;17.13;;;;;;;2.13;80.16;101382.25;5063131;28;20028;-62
2022/04/04 04:46:57;;;;;;;29.80;17.23;;;;;;;2.23;79.60;101391.13;5062809;28;20070;-62
2022/04/04 04:49:25;;;;;;;30.42;17.40;;;;;;;2.25;79.81;101388.22;5062615;28;20052;-62
2022/04/04 04:51:51;;;;;;;;;;;;;;;2.49;78.78;101376.63;5062397;28;20039;-62
2022/04/04 04:54:16;;;;;;;28.30;16.90;;;;;;;2.31;79.17;101376.72;5062741;28;19916;-62
2022/04/04 04:56:42;;;;;;;27.50;17.58;;;;;;;2.29;79.64;101366.06;5062507;28;20036;-62
2022/04/04 04:59:07;;;;;;;29.33;16.05;;;;;;;2.33;79.57;101361.13;5082538;28;20478;-62
2022/04/04 05:01:32;;;;;;;26.83;17.00;;;;;;;2.33;79.68;101353.88;5082895;28;20016;-62
2022/04/04 05:03:57;;;;;;;28.10;15.95;;;;;;;2.37;79.52;101343.53;5082757;28;20031;-62
2022/04/04 05:06:23;;;;;;;28.38;15.35;;;;;;;2.44;79.22;101350.03;5081891;28;20390;-62
2022/04/04 05:08:48;;;;;;;25.90;16.08;;;;;;;2.54;78.97;101339.03;5083047;28;20055;-61
2022/04/04 05:11:13;;;;;;;31.23;16.63;;;;;;;2.58;78.93;101333.06;5081562;28;20131;-62
2022/04/04 05:13:38;;;;;;;28.70;17.23;;;;;;;2.64;78.89;101331.59;5082760;28;20021;-62
2022/04/04 05:16:09;;;;;;;26.38;17.05;;;;;;;2.67;78.70;101336.66;5082724;28;20382;-62
2022/04/04 05:18:35;;;;;;;29.25;16.80;;;;;;;2.70;78.41;101320.06;5081533;28;20085;-62
2022/04/04 05:21:00;;;;;;;26.60;16.67;;;;;;;2.69;78.89;101321.09;5082039;28;20032;-64
2022/04/04 05:23:26;;;;;;;30.58;16.80;;;;;;;2.69;78.99;101309.41;5082007;28;20415;-62
2022/04/04 05:25:51;;;;;;;28.15;15.90;;;;;;;2.70;79.01;101298.38;5083485;28;20031;-62
2022/04/04 05:28:16;;;;;;;27.63;17.08;;;;;;;2.76;78.51;101303.13;5082372;28;20054;-62
2022/04/04 05:30:41;;;;;;;29.33;18.67;;;;;;;2.77;78.75;101299.38;5082680;28;20055;-62
2022/04/04 05:33:09;;;;;;;28.85;19.02;;;;;;;2.81;78.76;101300.75;5082930;28;20075;-62
2022/04/04 05:35:35;;;;;;;31.40;19.73;;;;;;;2.79;78.72;101299.22;5064965;28;20028;-62
2022/04/04 05:38:00;;;;;;;26.85;17.73;;;;;;;2.83;78.84;101297.84;5080652;28;20130;-62
2022/04/04 05:40:25;;;;;;;26.38;16.40;;;;;;;2.87;78.41;101280.22;5072843;28;20033;-62
2022/04/04 05:42:51;;;;;;;28.35;17.73;;;;;;;2.88;78.90;101279.19;5062451;28;20109;-62
2022/04/04 05:45:16;;;;;;;29.30;17.90;;;;;;;2.93;78.80;101284.97;5062357;28;20448;-62
2022/04/04 05:47:41;;;;;;;28.10;17.75;;;;;;;2.96;78.73;101265.66;5071808;28;20028;-62
2022/04/04 05:50:07;;;;;;;32.20;18.55;;;;;;;3.06;78.39;101258.16;5083178;28;20471;-62
2022/04/04 05:52:34;;;;;;;27.83;18.48;;;;;;;3.08;78.68;101258.00;5081627;28;20049;-62
2022/04/04 05:55:01;;;;;;;32.33;19.33;;;;;;;3.13;78.37;101247.47;5085631;28;20536;-63
2022/04/04 05:57:29;;;;;;;30.55;16.23;;;;;;;3.28;77.85;101244.91;5085242;28;20097;-62
2022/04/04 05:59:55;;;;;;;33.42;20.00;;;;;;;3.27;77.94;101254.06;5086610;28;20039;-61
2022/04/04 06:02:22;;;;;;;30.52;19.80;;;;;;;3.29;77.89;101254.72;5084523;28;20016;-62
2022/04/04 06:04:48;;;;;;;35.37;20.67;;;;;;;3.28;77.59;101245.75;5085431;28;20103;-62
2022/04/04 06:07:13;;;;;;;30.15;18.42;;;;;;;3.31;77.78;101245.41;5084434;28;20134;-62
2022/04/04 06:09:38;;;;;;;27.88;16.45;;;;;;;3.38;76.92;101237.41;5085910;28;20363;-62
2022/04/04 06:12:04;;;;;;;32.53;19.27;;;;;;;3.39;77.06;101223.63;5084719;28;20506;-62
2022/04/04 06:14:29;;;;;;;28.38;17.75;;;;;;;3.54;75.82;101236.50;5085232;28;20493;-62
2022/04/04 06:16:55;;;;;;;31.27;19.27;;;;;;;3.52;76.13;101222.25;5084593;28;20501;-62
2022/04/04 06:19:20;;;;;;;33.63;17.60;;;;;;;3.63;75.97;101227.31;5085532;28;20020;-63
2022/04/04 06:21:45;;;;;;;30.75;17.42;;;;;;;3.80;74.31;101214.47;5083763;28;20374;-62
2022/04/04 06:24:11;;;;;;;31.35;16.27;;;;;;;3.89;73.89;101216.13;5084923;28;20409;-65
2022/04/04 06:26:36;;;;;;;32.50;19.30;;;;;;;3.97;73.17;101213.38;5085849;28;20054;-62
2022/04/04 06:29:02;;;;;;;28.20;14.98;;;;;;;4.12;72.28;101198.00;5082808;28;20417;-62
2022/04/04 06:31:27;;;;;;;29.70;18.83;;;;;;;4.17;72.00;101194.75;5066532;28;20035;-62
2022/04/04 06:33:52;;;;;;;24.63;14.50;;;;;;;4.33;71.97;101177.47;5064902;28;20461;-62
2022/04/04 06:36:18;;;;;;;29.35;18.10;;;;;;;4.29;72.83;101197.88;5063362;28;20051;-62
2022/04/04 06:38:43;;;;;;;30.98;17.60;;;;;;;4.36;71.70;101188.84;5084944;28;20024;-62
2022/04/04 06:41:09;;;;;;;27.00;15.82;;;;;;;4.37;71.68;101178.81;5085319;28;20190;-62
2022/04/04 06:43:34;;;;;;;28.92;17.52;;;;;;;4.46;71.78;101179.56;5085222;28;20024;-62
2022/04/04 06:46:02;;;;;;;24.40;15.75;;;;;;;4.52;71.27;101168.81;5084531;28;20143;-62
2022/04/04 06:48:27;;;;;;;29.10;17.38;;;;;;;4.51;72.12;101163.53;5084448;28;20193;-62
2022/04/04 06:50:53;;;;;;;30.55;17.50;;;;;;;4.52;71.46;101163.38;5082712;28;20066;-62
2022/04/04 06:53:21;;;;;;;30.40;19.88;;;;;;;4.45;72.53;101154.25;5094779;28;20027;-63
2022/04/04 06:55:47;;;;;;;29.60;17.13;;;;;;;4.57;71.02;101155.50;5103142;28;20024;-62
2022/04/04 06:58:13;;;;;;;29.60;17.30;;;;;;;4.54;71.04;101152.31;5084640;28;20034;-63
2022/04/04 07:00:38;;;;;;;29.90;17.60;;;;;;;4.56;71.66;101152.97;5085464;28;20025;-63
2022/04/04 07:03:03;;;;;;;26.75;16.92;;;;;;;4.72;70.77;101143.81;5084535;28;20043;-62
2022/04/04 07:05:29;;;;;;;31.40;18.08;;;;;;;4.76;70.64;101142.41;5084071;28;20028;-62
2022/04/04 07:07:54;;;;;;;26.25;15.70;;;;;;;4.84;70.15;101131.44;5083912;28;20020;-62
2022/04/04 07:10:20;;;;;;;28.45;15.48;;;;;;;4.90;69.91;101127.97;5084799;28;20115;-62
2022/04/04 07:12:45;;;;;;;27.27;16.70;;;;;;;4.93;69.39;101125.72;5084886;28;20027;-62
2022/04/04 07:15:11;;;;;;;24.08;14.07;;;;;;;5.03;69.37;101114.56;5084417;28;20024;-63
2022/04/04 07:17:42;;;;;;;27.05;16.38;;;;;;;5.04;69.88;101110.81;5085286;28;20048;-62
2022/04/04 07:20:08;;;;;;;28.67;16.17;;;;;;;4.97;69.61;101119.88;5084568;28;20587;-62
2022/04/04 07:22:39;;;;;;;22.70;14.32;;;;;;;5.08;69.15;101100.38;5083605;28;20051;-63
2022/04/04 07:25:07;;;;;;;24.92;16.13;;;;;;;5.10;69.65;101095.59;5085539;28;20058;-62
2022/04/04 07:27:33;;;;;;;28.35;16.02;;;;;;;5.23;68.98;101095.78;5076386;28;20070;-63
2022/04/04 07:29:58;;;;;;;28.45;16.38;;;;;;;5.23;68.98;101098.50;5085116;28;20024;-66
2022/04/04 07:32:24;;;;;;;27.40;16.08;;;;;;;5.29;69.04;101081.41;5083868;28;20078;-62
2022/04/04 07:34:49;;;;;;;27.25;15.95;;;;;;;5.35;68.68;101083.34;5077133;28;20036;-62
2022/04/04 07:37:14;;;;;;;27.73;16.65;;;;;;;5.31;69.43;101083.91;5062529;28;20475;-63
2022/04/04 07:39:40;;;;;;;26.38;16.30;;;;;;;5.38;69.03;101074.81;5097762;28;20056;-62
2022/04/04 07:42:06;;;;;;;24.27;16.20;;;;;;;5.44;68.55;101070.47;5065747;28;20654;-63
2022/04/04 07:44:31;;;;;;;27.30;16.50;;;;;;;5.56;68.74;101081.69;5085850;28;20114;-63
2022/04/04 07:46:56;;;;;;;25.92;16.00;;;;;;;5.49;69.31;101059.84;5083131;28;20032;-63
2022/04/04 07:49:21;;;;;;;22.48;16.27;;;;;;;5.58;68.45;101050.53;5084324;28;20336;-62
2022/04/04 07:51:47;;;;;;;28.20;15.82;;;;;;;5.63;68.63;101049.94;5081743;28;20024;-63
2022/04/04 07:54:13;;;;;;;31.63;16.13;;;;;;;5.63;69.01;101039.88;5083583;28;20024;-63
2022/04/04 07:56:38;;;;;;;28.33;15.23;;;;;;;5.79;68.39;101027.03;5084057;28;20032;-63
2022/04/04 07:59:04;;;;;;;26.85;16.17;;;;;;;5.81;68.75;101030.41;5083967;28;20035;-63
2022/04/04 08:01:29;;;;;;;29.05;15.25;;;;;;;5.93;67.42;101028.84;5079301;28;20072;-63
2022/04/04 08:03:54;;;;;;;22.80;13.75;;;;;;;5.96;67.24;101023.03;5063806;28;20482;-63
2022/04/04 08:06:19;;;;;;;22.55;14.73;;;;;;;6.09;66.86;101025.88;5062849;28;20054;-63
2022/04/04 08:08:45;;;;;;;24.70;15.48;;;;;;;6.12;66.66;101020.00;5045812;28;20033;-63
2022/04/04 08:11:11;;;;;;;24.80;17.05;;;;;;;6.12;65.86;101011.84;5063859;28;20331;-63
2022/04/04 08:13:42;;;;;;;29.45;16.40;;;;;;;6.21;65.85;100982.53;5064068;28;20626;-63
2022/04/04 08:16:08;;;;;;;28.10;15.70;;;;;;;6.19;65.69;101003.72;5076185;28;20028;-63
2022/04/04 08:18:34;;;;;;;27.77;16.10;;;;;;;6.29;64.85;100995.19;5073259;28;20070;-63
2022/04/04 08:20:59;;;;;;;26.35;15.55;;;;;;;6.44;64.68;100977.66;5062095;28;20029;-63
2022/04/04 08:23:29;;;;;;;22.73;15.05;;;;;;;6.44;64.97;100994.03;5062411;28;20365;-62
2022/04/04 08:25:58;;;;;;;22.52;13.85;;;;;;;6.54;63.92;101003.72;5063010;28;20025;-63
2022/04/04 08:28:24;;;;;;;23.27;14.57;;;;;;;6.58;63.83;100975.00;5062316;28;20094;-62
2022/04/04 08:30:52;;;;;;;23.42;14.95;;;;;;;6.58;64.40;100977.72;5063085;28;20029;-63
2022/04/04 08:33:18;;;;;;;27.70;14.55;;;;;;;6.66;63.56;100964.78;5062554;28;20024;-63
2022/04/04 08:35:45;;;;;;;22.50;15.13;;;;;;;6.65;63.64;100967.72;5062278;28;20103;-62
2022/04/04 08:38:10;;;;;;;25.25;15.10;;;;;;;6.67;64.51;100974.63;5081398;28;20044;-68
2022/04/04 08:40:37;;;;;;;20.40;14.68;;;;;;;6.72;63.74;100953.03;5083766;28;20024;-63
2022/04/04 08:43:05;;;;;;;28.90;15.15;;;;;;;6.74;64.12;100940.06;5080722;28;20028;-62
2022/04/04 08:45:31;;;;;;;;;;;;;;;6.89;64.19;100953.53;5083287;28;20058;-63
2022/04/04 08:47:57;;;;;;;24.38;15.02;;;;;;;6.88;63.05;100948.28;5082755;28;19927;-62
2022/04/04 08:50:23;;;;;;;24.65;14.98;;;;;;;6.72;63.94;100938.56;5082391;28;20474;-62
2022/04/04 08:52:48;;;;;;;28.02;14.50;;;;;;;6.70;63.86;100936.03;5079352;28;20052;-62
2022/04/04 08:55:15;;;;;;;25.85;13.90;;;;;;;6.72;63.66;100944.84;5074007;28;20099;-62
2022/04/04 08:57:41;;;;;;;24.05;16.15;;;;;;;6.64;64.07;100927.78;5062535;28;20032;-64
2022/04/04 09:00:10;;;;;;;22.75;13.75;;;;;;;6.60;64.91;100938.28;5076197;28;20023;-63
2022/04/04 09:02:36;;;;;;;23.02;14.57;;;;;;;6.73;64.95;100930.16;5061367;28;21049;-63
2022/04/04 09:05:04;;;;;;;29.23;16.60;;;;;;;6.52;65.73;100937.63;5069051;28;20458;-63
2022/04/04 09:07:29;;;;;;;21.48;12.77;;;;;;;6.58;65.89;100925.88;5076888;28;20033;-62
2022/04/04 09:09:54;;;;;;;28.38;17.25;;;;;;;6.54;66.36;100910.97;5066487;28;20461;-62
2022/04/04 09:12:22;;;;;;;27.48;16.52;;;;;;;6.57;66.95;100918.75;5074701;28;20028;-63
2022/04/04 09:14:52;;;;;;;27.48;17.73;;;;;;;6.57;66.82;100925.03;5078248;28;20050;-62
2022/04/04 09:17:21;;;;;;;25.65;18.10;;;;;;;6.44;67.55;100914.09;5098754;27;20571;-62
2022/04/04 09:19:46;;;;;;;29.90;16.83;;;;;;;6.57;67.08;100913.28;5070355;28;20123;-63
2022/04/04 09:22:19;;;;;;;24.90;14.95;;;;;;;6.50;67.36;100902.34;5075245;28;20729;-63
2022/04/04 09:24:58;;;;;;;29.38;18.10;;;;;;;6.41;68.37;100907.13;5070181;28;20059;-63
2022/04/04 09:27:32;;;;;;;32.13;16.75;;;;;;;6.45;67.94;100902.13;5073880;28;20563;-62
2022/04/04 09:30:05;;;;;;;26.00;15.88;;;;;;;6.38;68.92;100901.22;5076286;28;20023;-63
2022/04/04 09:32:45;;;;;;;30.45;18.20;;;;;;;6.36;69.70;100900.59;5073163;28;20101;-63
2022/04/04 09:35:13;;;;;;;35.17;15.90;;;;;;;6.49;69.16;100904.25;5076529;28;20038;-63
2022/04/04 09:37:42;;;;;;;27.27;18.13;;;;;;;6.34;70.87;100900.81;5078837;28;20137;-62
2022/04/04 09:40:12;;;;;;;29.40;18.83;;;;;;;6.31;72.37;100889.44;5078293;28;20058;-62
2022/04/04 09:42:37;;;;;;;29.75;18.50;;;;;;;6.44;71.20;100909.47;5072569;28;20138;-63
2022/04/04 09:45:09;;;;;;;25.92;18.02;;;;;;;6.31;72.03;100889.44;5078161;28;20024;-63
2022/04/04 09:47:53;;;;;;;31.23;17.65;;;;;;;6.38;71.45;100876.69;5090193;28;20040;-62
2022/04/04 09:50:49;;;;;;;29.20;18.23;;;;;;;6.36;72.17;100887.81;5067508;28;20068;-65
2022/04/04 09:53:23;;;;;;;38.55;19.00;;;;;;;6.18;73.20;100884.75;5062104;28;20025;-62
2022/04/04 09:55:55;;;;;;;34.45;20.17;;;;;;;6.05;73.88;100885.53;5063864;28;20420;-63
2022/04/04 09:58:22;;;;;;;31.73;18.88;;;;;;;6.26;73.13;100881.03;5080792;28;20080;-63
2022/04/04 10:00:50;;;;;;;36.97;19.90;;;;;;;6.08;74.29;100878.81;5080210;28;20028;-62
2022/04/04 10:03:18;;;;;;;31.33;21.70;;;;;;;6.09;74.68;100870.47;5082471;28;20282;-62
2022/04/04 10:05:47;;;;;;;42.37;21.37;;;;;;;6.04;75.18;100872.94;5082081;28;20016;-63
2022/04/04 10:08:15;;;;;;;30.70;17.55;;;;;;;6.11;74.81;100868.34;5080004;28;20028;-63
2022/04/04 10:10:40;;;;;;;32.25;20.90;;;;;;;6.09;75.09;100856.00;5082339;28;20035;-66
2022/04/04 10:13:06;;;;;;;36.97;21.48;;;;;;;6.08;75.87;100852.38;5082082;28;20028;-62
2022/04/04 10:15:35;;;;;;;36.03;22.35;;;;;;;6.08;76.07;100848.81;5080012;28;20035;-62
2022/04/04 10:18:00;;;;;;;43.00;23.77;;;;;;;6.12;77.41;100853.69;5079619;28;20462;-62
2022/04/04 10:20:26;;;;;;;39.13;22.80;;;;;;;6.15;76.79;100858.75;5078489;28;20036;-62
2022/04/04 10:22:53;;;;;;;37.78;19.35;;;;;;;6.24;77.16;100857.53;5081350;28;20599;-62
2022/04/04 10:25:24;;;;;;;45.40;25.48;;;;;;;6.23;78.38;100866.78;5082236;28;20028;-62
2022/04/04 10:27:49;;;;;;;38.42;22.48;;;;;;;6.31;78.23;100852.09;5081482;28;20429;-62
2022/04/04 10:30:16;;;;;;;38.17;23.10;;;;;;;6.37;78.55;100855.91;5074618;28;20024;-62
2022/04/04 10:32:54;;;;;;;35.42;22.88;;;;;;;6.81;75.73;100860.91;5076608;28;20111;-62
2022/04/04 10:35:24;;;;;;;39.65;23.20;;;;;;;6.46;77.91;100846.50;5079399;28;20587;-62
2022/04/04 10:37:50;;;;;;;38.70;22.70;;;;;;;6.29;78.77;100854.22;5082240;28;20040;-62
2022/04/04 10:40:20;;;;;;;35.67;23.23;;;;;;;6.31;79.43;100845.81;5083555;28;20111;-62
2022/04/04 10:42:46;;;;;;;39.15;22.67;;;;;;;6.17;79.58;100845.72;5085183;28;20111;-62
2022/04/04 10:45:13;;;;;;;42.13;25.60;;;;;;;6.00;82.39;100852.56;5084679;28;20024;-63
2022/04/04 10:47:42;;;;;;;39.40;24.50;;;;;;;6.04;81.37;100844.84;5081389;28;20048;-63
2022/04/04 10:50:32;;;;;;;41.65;23.60;;;;;;;6.14;81.44;100832.53;5079716;28;20097;-66
2022/04/04 10:53:00;;;;;;;37.90;24.08;;;;;;;6.15;81.36;100826.03;5084955;28;20478;-62
2022/04/04 10:55:38;;;;;;;36.33;23.23;;;;;;;6.07;82.57;100823.44;5084851;28;20020;-62
2022/04/04 10:58:12;;;;;;;42.05;24.77;;;;;;;6.02;83.82;100828.66;5082942;28;20032;-62
2022/04/04 11:01:07;;;;;;;39.00;23.50;;;;;;;6.22;83.79;100820.59;5066704;28;20036;-63
2022/04/04 11:03:40;;;;;;;39.13;24.58;;;;;;;6.03;83.78;100803.06;5075974;28;20051;-62
2022/04/04 11:09:12;;;;;;;34.70;22.27;;;;;;;6.16;84.92;100800.44;5074716;28;20051;-62
2022/04/04 11:11:54;;;;;;;29.75;19.33;;;;;;;6.02;84.54;100814.19;5073741;28;20051;-62
2022/04/04 11:14:30;;;;;;;27.63;19.17;;;;;;;5.99;85.30;100799.09;5074726;28;20502;-62
2022/04/04 11:17:07;;;;;;;25.98;18.35;;;;;;;6.05;84.67;100797.44;5080378;28;20052;-62
2022/04/04 11:19:44;;;;;;;24.33;16.85;;;;;;;6.05;86.07;100803.75;5072312;28;20033;-62
2022/04/04 11:22:11;;;;;;;20.85;15.55;;;;;;;5.99;86.31;100793.66;5081037;28;20127;-62